Terminal Aerodrome Forecast
Issued by NWS Albany, NY

Home | Current Version | Previous Version | Text Only | Print | Product List | Glossary On
Versions: 1 2 3 4 5 6 7 8 9 10 11 12 13 14 15 16 17 18 19 20 21 22 23 24
769
FTUS41 KALY 310538
TAFPOU
TAF
KPOU 310538Z 3106/0106 VRB03KT P6SM VCSH SCT015 OVC025
      TEMPO 3106/3108 4SM -SHRA BR BKN015 OVC025
     FM310800 VRB03KT 4SM -SHRA BR SCT004 OVC009
      TEMPO 3108/3111 2SM -SHRA BR OVC004
     FM311200 08004KT 3SM -SHRA BR OVC008
     FM311800 10005KT 4SM -SHRA BR OVC012
     FM010000 VRB03KT 3SM -SHRA BR OVC008=

USA.gov is the U.S. government's official web portal to all federal, state and local government web resources and services.